sensor_id;sensor_type;location;lat;lon;timestamp;P1;durP1;ratioP1;P2;durP2;ratioP2
31764;SDS011;18338;53.240;8.798;2022-08-24T00:01:20;2.58;;;1.67;;
31764;SDS011;18338;53.240;8.798;2022-08-24T00:03:47;2.70;;;1.80;;
31764;SDS011;18338;53.240;8.798;2022-08-24T00:06:20;2.90;;;1.60;;
31764;SDS011;18338;53.240;8.798;2022-08-24T00:08:48;2.67;;;1.80;;
31764;SDS011;18338;53.240;8.798;2022-08-24T00:11:17;2.95;;;1.50;;
31764;SDS011;18338;53.240;8.798;2022-08-24T00:13:44;3.15;;;1.60;;
31764;SDS011;18338;53.240;8.798;2022-08-24T00:16:12;3.35;;;1.80;;
31764;SDS011;18338;53.240;8.798;2022-08-24T00:18:40;2.45;;;1.88;;
31764;SDS011;18338;53.240;8.798;2022-08-24T00:21:08;2.03;;;1.73;;
31764;SDS011;18338;53.240;8.798;2022-08-24T00:23:34;2.83;;;1.95;;
31764;SDS011;18338;53.240;8.798;2022-08-24T00:26:02;2.00;;;1.60;;
31764;SDS011;18338;53.240;8.798;2022-08-24T00:28:29;2.00;;;1.60;;
31764;SDS011;18338;53.240;8.798;2022-08-24T00:30:56;2.28;;;2.00;;
31764;SDS011;18338;53.240;8.798;2022-08-24T00:33:23;3.42;;;1.80;;
31764;SDS011;18338;53.240;8.798;2022-08-24T00:35:50;2.00;;;1.50;;
31764;SDS011;18338;53.240;8.798;2022-08-24T00:38:17;1.88;;;1.50;;
31764;SDS011;18338;53.240;8.798;2022-08-24T00:40:45;2.95;;;2.05;;
31764;SDS011;18338;53.240;8.798;2022-08-24T00:43:16;3.78;;;2.08;;
31764;SDS011;18338;53.240;8.798;2022-08-24T00:45:57;3.22;;;1.83;;
31764;SDS011;18338;53.240;8.798;2022-08-24T00:48:28;4.20;;;2.08;;
31764;SDS011;18338;53.240;8.798;2022-08-24T00:51:01;3.08;;;2.13;;
31764;SDS011;18338;53.240;8.798;2022-08-24T00:53:34;3.30;;;2.13;;
31764;SDS011;18338;53.240;8.798;2022-08-24T00:56:06;2.97;;;1.88;;
31764;SDS011;18338;53.240;8.798;2022-08-24T00:58:37;1.80;;;1.70;;
31764;SDS011;18338;53.240;8.798;2022-08-24T01:01:07;3.17;;;1.85;;
31764;SDS011;18338;53.240;8.798;2022-08-24T01:03:36;2.85;;;1.77;;
31764;SDS011;18338;53.240;8.798;2022-08-24T01:06:03;3.45;;;1.90;;
31764;SDS011;18338;53.240;8.798;2022-08-24T01:08:30;2.58;;;2.05;;
31764;SDS011;18338;53.240;8.798;2022-08-24T01:10:58;3.75;;;2.00;;
31764;SDS011;18338;53.240;8.798;2022-08-24T01:13:28;3.35;;;1.92;;
31764;SDS011;18338;53.240;8.798;2022-08-24T01:15:58;4.63;;;2.20;;
31764;SDS011;18338;53.240;8.798;2022-08-24T01:18:30;2.13;;;1.80;;
31764;SDS011;18338;53.240;8.798;2022-08-24T01:21:21;2.20;;;2.00;;
31764;SDS011;18338;53.240;8.798;2022-08-24T01:23:58;2.83;;;2.10;;
31764;SDS011;18338;53.240;8.798;2022-08-24T01:26:33;6.47;;;2.30;;
31764;SDS011;18338;53.240;8.798;2022-08-24T01:29:09;2.92;;;1.80;;
31764;SDS011;18338;53.240;8.798;2022-08-24T01:31:41;3.50;;;2.15;;
31764;SDS011;18338;53.240;8.798;2022-08-24T01:34:09;3.45;;;2.15;;
31764;SDS011;18338;53.240;8.798;2022-08-24T01:36:39;2.65;;;1.73;;
31764;SDS011;18338;53.240;8.798;2022-08-24T01:41:42;2.63;;;2.10;;
31764;SDS011;18338;53.240;8.798;2022-08-24T01:44:09;3.35;;;1.90;;
31764;SDS011;18338;53.240;8.798;2022-08-24T01:46:36;2.67;;;1.90;;
31764;SDS011;18338;53.240;8.798;2022-08-24T01:49:03;3.45;;;1.90;;
31764;SDS011;18338;53.240;8.798;2022-08-24T01:51:31;2.30;;;2.10;;
31764;SDS011;18338;53.240;8.798;2022-08-24T01:53:59;2.70;;;2.15;;
31764;SDS011;18338;53.240;8.798;2022-08-24T01:56:31;2.53;;;1.90;;
31764;SDS011;18338;53.240;8.798;2022-08-24T01:58:59;3.30;;;1.95;;
31764;SDS011;18338;53.240;8.798;2022-08-24T02:01:26;3.20;;;1.80;;
31764;SDS011;18338;53.240;8.798;2022-08-24T02:03:56;3.03;;;2.00;;
31764;SDS011;18338;53.240;8.798;2022-08-24T02:06:25;2.88;;;1.98;;
31764;SDS011;18338;53.240;8.798;2022-08-24T02:08:52;2.92;;;1.98;;
31764;SDS011;18338;53.240;8.798;2022-08-24T02:11:19;3.17;;;2.10;;
31764;SDS011;18338;53.240;8.798;2022-08-24T02:13:45;3.42;;;2.38;;
31764;SDS011;18338;53.240;8.798;2022-08-24T02:16:13;4.65;;;1.88;;
31764;SDS011;18338;53.240;8.798;2022-08-24T02:18:40;4.60;;;1.80;;
31764;SDS011;18338;53.240;8.798;2022-08-24T02:21:10;3.58;;;2.10;;
31764;SDS011;18338;53.240;8.798;2022-08-24T02:23:39;4.57;;;2.05;;
31764;SDS011;18338;53.240;8.798;2022-08-24T02:26:07;2.42;;;2.22;;
31764;SDS011;18338;53.240;8.798;2022-08-24T02:28:35;3.55;;;2.30;;
31764;SDS011;18338;53.240;8.798;2022-08-24T02:31:02;2.63;;;2.20;;
31764;SDS011;18338;53.240;8.798;2022-08-24T02:33:32;5.00;;;2.30;;
31764;SDS011;18338;53.240;8.798;2022-08-24T02:36:00;2.70;;;1.83;;
31764;SDS011;18338;53.240;8.798;2022-08-24T02:38:29;2.80;;;2.00;;
31764;SDS011;18338;53.240;8.798;2022-08-24T02:40:55;4.15;;;2.03;;
31764;SDS011;18338;53.240;8.798;2022-08-24T02:43:23;5.40;;;1.95;;
31764;SDS011;18338;53.240;8.798;2022-08-24T02:45:50;2.42;;;2.00;;
31764;SDS011;18338;53.240;8.798;2022-08-24T02:48:18;4.90;;;2.40;;
31764;SDS011;18338;53.240;8.798;2022-08-24T02:50:46;2.72;;;2.17;;
31764;SDS011;18338;53.240;8.798;2022-08-24T02:53:15;3.30;;;2.08;;
31764;SDS011;18338;53.240;8.798;2022-08-24T02:55:44;3.08;;;2.00;;
31764;SDS011;18338;53.240;8.798;2022-08-24T02:58:12;6.00;;;2.47;;
31764;SDS011;18338;53.240;8.798;2022-08-24T03:00:40;3.05;;;2.03;;
31764;SDS011;18338;53.240;8.798;2022-08-24T03:03:07;2.38;;;2.13;;
31764;SDS011;18338;53.240;8.798;2022-08-24T03:05:36;2.47;;;2.28;;
31764;SDS011;18338;53.240;8.798;2022-08-24T03:08:04;3.10;;;2.38;;
31764;SDS011;18338;53.240;8.798;2022-08-24T03:10:31;3.28;;;2.53;;
31764;SDS011;18338;53.240;8.798;2022-08-24T03:12:58;2.88;;;2.25;;
31764;SDS011;18338;53.240;8.798;2022-08-24T03:15:26;3.47;;;2.55;;
31764;SDS011;18338;53.240;8.798;2022-08-24T03:17:53;3.47;;;2.50;;
31764;SDS011;18338;53.240;8.798;2022-08-24T03:20:20;3.08;;;2.65;;
31764;SDS011;18338;53.240;8.798;2022-08-24T03:22:47;3.78;;;2.40;;
31764;SDS011;18338;53.240;8.798;2022-08-24T03:25:15;2.45;;;2.08;;
31764;SDS011;18338;53.240;8.798;2022-08-24T03:27:42;3.28;;;2.00;;
31764;SDS011;18338;53.240;8.798;2022-08-24T03:30:10;5.43;;;2.50;;
31764;SDS011;18338;53.240;8.798;2022-08-24T03:32:39;3.78;;;2.53;;
31764;SDS011;18338;53.240;8.798;2022-08-24T03:35:08;3.65;;;2.50;;
31764;SDS011;18338;53.240;8.798;2022-08-24T03:37:36;3.17;;;2.20;;
31764;SDS011;18338;53.240;8.798;2022-08-24T03:40:03;3.33;;;2.35;;
31764;SDS011;18338;53.240;8.798;2022-08-24T03:42:47;2.88;;;2.58;;
31764;SDS011;18338;53.240;8.798;2022-08-24T03:45:14;2.55;;;2.15;;
31764;SDS011;18338;53.240;8.798;2022-08-24T03:47:41;2.85;;;2.63;;
31764;SDS011;18338;53.240;8.798;2022-08-24T03:50:09;3.28;;;2.53;;
31764;SDS011;18338;53.240;8.798;2022-08-24T03:52:37;3.45;;;2.50;;
31764;SDS011;18338;53.240;8.798;2022-08-24T03:55:04;4.35;;;2.25;;
31764;SDS011;18338;53.240;8.798;2022-08-24T03:57:32;2.80;;;2.60;;
31764;SDS011;18338;53.240;8.798;2022-08-24T03:59:58;3.35;;;2.28;;
31764;SDS011;18338;53.240;8.798;2022-08-24T04:02:25;3.30;;;2.30;;
31764;SDS011;18338;53.240;8.798;2022-08-24T04:04:58;3.47;;;2.95;;
31764;SDS011;18338;53.240;8.798;2022-08-24T04:07:24;4.85;;;2.42;;
31764;SDS011;18338;53.240;8.798;2022-08-24T04:09:51;2.60;;;2.40;;
31764;SDS011;18338;53.240;8.798;2022-08-24T04:12:18;3.58;;;2.50;;
31764;SDS011;18338;53.240;8.798;2022-08-24T04:14:50;4.13;;;2.70;;
31764;SDS011;18338;53.240;8.798;2022-08-24T04:17:17;3.45;;;2.55;;
31764;SDS011;18338;53.240;8.798;2022-08-24T04:19:44;3.05;;;2.75;;
31764;SDS011;18338;53.240;8.798;2022-08-24T04:22:23;4.03;;;2.60;;
31764;SDS011;18338;53.240;8.798;2022-08-24T04:24:51;5.20;;;2.70;;
31764;SDS011;18338;53.240;8.798;2022-08-24T04:27:18;6.75;;;2.70;;
31764;SDS011;18338;53.240;8.798;2022-08-24T04:29:45;3.92;;;2.78;;
31764;SDS011;18338;53.240;8.798;2022-08-24T04:32:12;3.42;;;2.95;;
31764;SDS011;18338;53.240;8.798;2022-08-24T04:37:53;6.95;;;2.80;;
31764;SDS011;18338;53.240;8.798;2022-08-24T04:40:20;3.92;;;2.63;;
31764;SDS011;18338;53.240;8.798;2022-08-24T04:42:47;4.30;;;2.60;;
31764;SDS011;18338;53.240;8.798;2022-08-24T04:45:14;3.83;;;2.38;;
31764;SDS011;18338;53.240;8.798;2022-08-24T04:47:42;4.07;;;3.05;;
31764;SDS011;18338;53.240;8.798;2022-08-24T04:50:10;5.60;;;3.25;;
31764;SDS011;18338;53.240;8.798;2022-08-24T04:52:37;2.80;;;2.50;;
31764;SDS011;18338;53.240;8.798;2022-08-24T04:55:04;3.35;;;3.05;;
31764;SDS011;18338;53.240;8.798;2022-08-24T04:57:33;3.28;;;2.35;;
31764;SDS011;18338;53.240;8.798;2022-08-24T05:00:00;3.58;;;2.70;;
31764;SDS011;18338;53.240;8.798;2022-08-24T05:02:28;3.95;;;2.90;;
31764;SDS011;18338;53.240;8.798;2022-08-24T05:04:56;4.10;;;2.80;;
31764;SDS011;18338;53.240;8.798;2022-08-24T05:07:23;2.85;;;2.55;;
31764;SDS011;18338;53.240;8.798;2022-08-24T05:09:51;2.90;;;2.60;;
31764;SDS011;18338;53.240;8.798;2022-08-24T05:12:18;4.25;;;3.00;;
31764;SDS011;18338;53.240;8.798;2022-08-24T05:14:46;3.17;;;2.45;;
31764;SDS011;18338;53.240;8.798;2022-08-24T05:17:13;3.72;;;2.75;;
31764;SDS011;18338;53.240;8.798;2022-08-24T05:19:39;2.83;;;2.63;;
31764;SDS011;18338;53.240;8.798;2022-08-24T05:22:06;4.22;;;2.72;;
31764;SDS011;18338;53.240;8.798;2022-08-24T05:24:34;4.63;;;3.33;;
31764;SDS011;18338;53.240;8.798;2022-08-24T05:27:01;4.80;;;2.80;;
31764;SDS011;18338;53.240;8.798;2022-08-24T05:29:28;3.22;;;2.88;;
31764;SDS011;18338;53.240;8.798;2022-08-24T05:31:59;4.00;;;2.70;;
31764;SDS011;18338;53.240;8.798;2022-08-24T05:34:29;5.07;;;2.78;;
31764;SDS011;18338;53.240;8.798;2022-08-24T05:36:56;5.22;;;2.65;;
31764;SDS011;18338;53.240;8.798;2022-08-24T05:39:23;3.38;;;2.97;;
31764;SDS011;18338;53.240;8.798;2022-08-24T05:41:49;2.80;;;2.60;;
31764;SDS011;18338;53.240;8.798;2022-08-24T05:44:16;5.82;;;3.08;;
31764;SDS011;18338;53.240;8.798;2022-08-24T05:46:43;3.30;;;2.97;;
31764;SDS011;18338;53.240;8.798;2022-08-24T05:49:11;2.75;;;2.35;;
31764;SDS011;18338;53.240;8.798;2022-08-24T05:51:38;4.03;;;2.38;;
31764;SDS011;18338;53.240;8.798;2022-08-24T05:54:05;4.72;;;2.60;;
31764;SDS011;18338;53.240;8.798;2022-08-24T05:56:32;2.42;;;2.22;;
31764;SDS011;18338;53.240;8.798;2022-08-24T05:58:59;3.42;;;2.22;;
31764;SDS011;18338;53.240;8.798;2022-08-24T06:01:26;4.32;;;2.65;;
31764;SDS011;18338;53.240;8.798;2022-08-24T06:03:54;2.95;;;2.10;;
31764;SDS011;18338;53.240;8.798;2022-08-24T06:06:22;3.72;;;2.17;;
31764;SDS011;18338;53.240;8.798;2022-08-24T06:08:49;2.85;;;2.20;;
31764;SDS011;18338;53.240;8.798;2022-08-24T06:11:25;3.92;;;2.53;;
31764;SDS011;18338;53.240;8.798;2022-08-24T06:13:57;4.75;;;2.50;;
31764;SDS011;18338;53.240;8.798;2022-08-24T06:16:25;4.85;;;2.70;;
31764;SDS011;18338;53.240;8.798;2022-08-24T06:18:53;2.75;;;2.35;;
31764;SDS011;18338;53.240;8.798;2022-08-24T06:21:21;3.80;;;2.47;;
31764;SDS011;18338;53.240;8.798;2022-08-24T06:23:53;3.67;;;2.55;;
31764;SDS011;18338;53.240;8.798;2022-08-24T06:26:20;4.20;;;2.72;;
31764;SDS011;18338;53.240;8.798;2022-08-24T06:29:06;6.45;;;2.70;;
31764;SDS011;18338;53.240;8.798;2022-08-24T06:31:34;3.95;;;2.40;;
31764;SDS011;18338;53.240;8.798;2022-08-24T06:34:07;3.65;;;2.35;;
31764;SDS011;18338;53.240;8.798;2022-08-24T06:36:35;3.03;;;2.30;;
31764;SDS011;18338;53.240;8.798;2022-08-24T06:39:05;5.65;;;2.65;;
31764;SDS011;18338;53.240;8.798;2022-08-24T06:41:34;4.43;;;2.83;;
31764;SDS011;18338;53.240;8.798;2022-08-24T06:44:01;2.70;;;2.28;;
31764;SDS011;18338;53.240;8.798;2022-08-24T06:46:28;5.43;;;3.13;;
31764;SDS011;18338;53.240;8.798;2022-08-24T06:48:58;5.97;;;3.33;;
31764;SDS011;18338;53.240;8.798;2022-08-24T06:51:25;3.03;;;2.42;;
31764;SDS011;18338;53.240;8.798;2022-08-24T06:53:52;3.72;;;2.38;;
31764;SDS011;18338;53.240;8.798;2022-08-24T06:56:21;7.63;;;2.80;;
31764;SDS011;18338;53.240;8.798;2022-08-24T06:58:50;2.60;;;2.30;;
31764;SDS011;18338;53.240;8.798;2022-08-24T07:01:18;3.28;;;2.70;;
31764;SDS011;18338;53.240;8.798;2022-08-24T07:03:47;4.45;;;2.83;;
31764;SDS011;18338;53.240;8.798;2022-08-24T07:06:14;4.97;;;3.28;;
31764;SDS011;18338;53.240;8.798;2022-08-24T07:08:41;3.67;;;2.80;;
31764;SDS011;18338;53.240;8.798;2022-08-24T07:11:11;4.13;;;2.60;;
31764;SDS011;18338;53.240;8.798;2022-08-24T07:13:43;5.95;;;2.75;;
31764;SDS011;18338;53.240;8.798;2022-08-24T07:16:16;7.35;;;3.05;;
31764;SDS011;18338;53.240;8.798;2022-08-24T07:18:44;3.67;;;3.15;;
31764;SDS011;18338;53.240;8.798;2022-08-24T07:21:16;3.88;;;2.78;;
31764;SDS011;18338;53.240;8.798;2022-08-24T07:23:46;3.53;;;2.20;;
31764;SDS011;18338;53.240;8.798;2022-08-24T07:26:15;4.90;;;2.75;;
31764;SDS011;18338;53.240;8.798;2022-08-24T07:28:56;5.05;;;2.90;;
31764;SDS011;18338;53.240;8.798;2022-08-24T07:31:33;3.08;;;2.78;;
31764;SDS011;18338;53.240;8.798;2022-08-24T07:34:03;3.33;;;2.42;;
31764;SDS011;18338;53.240;8.798;2022-08-24T07:36:31;4.18;;;2.42;;
31764;SDS011;18338;53.240;8.798;2022-08-24T07:38:59;4.22;;;2.70;;
31764;SDS011;18338;53.240;8.798;2022-08-24T07:41:26;3.50;;;2.55;;
31764;SDS011;18338;53.240;8.798;2022-08-24T07:44:13;3.53;;;2.60;;
31764;SDS011;18338;53.240;8.798;2022-08-24T07:46:40;3.97;;;2.55;;
31764;SDS011;18338;53.240;8.798;2022-08-24T07:49:08;4.03;;;2.63;;
31764;SDS011;18338;53.240;8.798;2022-08-24T07:51:56;5.20;;;2.63;;
31764;SDS011;18338;53.240;8.798;2022-08-24T07:54:23;4.75;;;2.80;;
31764;SDS011;18338;53.240;8.798;2022-08-24T07:56:50;3.42;;;2.55;;
31764;SDS011;18338;53.240;8.798;2022-08-24T07:59:17;4.10;;;2.67;;
31764;SDS011;18338;53.240;8.798;2022-08-24T08:01:44;3.92;;;2.42;;
31764;SDS011;18338;53.240;8.798;2022-08-24T08:04:11;2.85;;;2.40;;
31764;SDS011;18338;53.240;8.798;2022-08-24T08:06:42;4.35;;;2.33;;
31764;SDS011;18338;53.240;8.798;2022-08-24T08:09:09;2.97;;;2.13;;
31764;SDS011;18338;53.240;8.798;2022-08-24T08:11:35;3.42;;;2.17;;
31764;SDS011;18338;53.240;8.798;2022-08-24T08:14:02;2.47;;;2.10;;
31764;SDS011;18338;53.240;8.798;2022-08-24T08:16:29;4.35;;;2.20;;
31764;SDS011;18338;53.240;8.798;2022-08-24T08:18:56;3.33;;;2.40;;
31764;SDS011;18338;53.240;8.798;2022-08-24T08:21:42;4.53;;;2.30;;
31764;SDS011;18338;53.240;8.798;2022-08-24T08:24:29;3.97;;;2.50;;
31764;SDS011;18338;53.240;8.798;2022-08-24T08:26:56;4.43;;;2.30;;
31764;SDS011;18338;53.240;8.798;2022-08-24T08:29:23;3.95;;;2.20;;
31764;SDS011;18338;53.240;8.798;2022-08-24T08:31:51;6.10;;;2.13;;
31764;SDS011;18338;53.240;8.798;2022-08-24T08:34:18;2.50;;;1.92;;
31764;SDS011;18338;53.240;8.798;2022-08-24T08:36:45;3.10;;;1.80;;
31764;SDS011;18338;53.240;8.798;2022-08-24T08:39:13;2.55;;;1.73;;
31764;SDS011;18338;53.240;8.798;2022-08-24T08:50:25;3.80;;;1.52;;
31764;SDS011;18338;53.240;8.798;2022-08-24T08:55:47;3.80;;;1.75;;
31764;SDS011;18338;53.240;8.798;2022-08-24T09:01:42;4.57;;;2.15;;
31764;SDS011;18338;53.240;8.798;2022-08-24T09:13:42;4.20;;;1.60;;
31764;SDS011;18338;53.240;8.798;2022-08-24T09:16:45;2.03;;;1.80;;
31764;SDS011;18338;53.240;8.798;2022-08-24T09:22:15;3.90;;;1.70;;
31764;SDS011;18338;53.240;8.798;2022-08-24T09:27:23;1.70;;;1.60;;
31764;SDS011;18338;53.240;8.798;2022-08-24T09:30:05;2.25;;;1.48;;
31764;SDS011;18338;53.240;8.798;2022-08-24T09:32:55;2.80;;;1.80;;
31764;SDS011;18338;53.240;8.798;2022-08-24T09:43:58;2.00;;;1.80;;
31764;SDS011;18338;53.240;8.798;2022-08-24T09:46:55;2.55;;;1.63;;
31764;SDS011;18338;53.240;8.798;2022-08-24T09:49:58;3.35;;;1.98;;
31764;SDS011;18338;53.240;8.798;2022-08-24T09:58:24;2.33;;;1.70;;
31764;SDS011;18338;53.240;8.798;2022-08-24T10:03:44;5.00;;;1.80;;
31764;SDS011;18338;53.240;8.798;2022-08-24T10:06:47;1.58;;;1.48;;
31764;SDS011;18338;53.240;8.798;2022-08-24T10:12:23;2.72;;;1.58;;
31764;SDS011;18338;53.240;8.798;2022-08-24T10:15:06;2.17;;;1.70;;
31764;SDS011;18338;53.240;8.798;2022-08-24T10:27:05;2.00;;;1.65;;
31764;SDS011;18338;53.240;8.798;2022-08-24T10:35:54;3.17;;;1.73;;
31764;SDS011;18338;53.240;8.798;2022-08-24T10:53:49;1.67;;;1.38;;
31764;SDS011;18338;53.240;8.798;2022-08-24T10:56:19;2.03;;;1.70;;
31764;SDS011;18338;53.240;8.798;2022-08-24T11:01:31;3.03;;;1.50;;
31764;SDS011;18338;53.240;8.798;2022-08-24T11:04:04;2.70;;;1.40;;
31764;SDS011;18338;53.240;8.798;2022-08-24T11:06:40;3.03;;;1.70;;
31764;SDS011;18338;53.240;8.798;2022-08-24T11:09:13;3.90;;;2.15;;
31764;SDS011;18338;53.240;8.798;2022-08-24T11:11:46;4.20;;;1.52;;
31764;SDS011;18338;53.240;8.798;2022-08-24T11:16:44;4.20;;;1.63;;
31764;SDS011;18338;53.240;8.798;2022-08-24T11:19:13;2.03;;;1.52;;
31764;SDS011;18338;53.240;8.798;2022-08-24T11:21:54;2.70;;;1.63;;
31764;SDS011;18338;53.240;8.798;2022-08-24T11:27:02;2.08;;;1.77;;
31764;SDS011;18338;53.240;8.798;2022-08-24T11:32:32;4.05;;;1.88;;
31764;SDS011;18338;53.240;8.798;2022-08-24T11:38:16;1.58;;;1.48;;
31764;SDS011;18338;53.240;8.798;2022-08-24T11:41:02;3.30;;;1.45;;
31764;SDS011;18338;53.240;8.798;2022-08-24T11:43:57;2.47;;;1.60;;
31764;SDS011;18338;53.240;8.798;2022-08-24T11:46:32;2.63;;;1.80;;
31764;SDS011;18338;53.240;8.798;2022-08-24T11:54:36;1.65;;;1.40;;
31764;SDS011;18338;53.240;8.798;2022-08-24T11:57:24;5.50;;;1.88;;
31764;SDS011;18338;53.240;8.798;2022-08-24T12:00:05;3.15;;;1.60;;
31764;SDS011;18338;53.240;8.798;2022-08-24T12:08:27;1.98;;;1.70;;
31764;SDS011;18338;53.240;8.798;2022-08-24T12:11:14;3.25;;;1.50;;
31764;SDS011;18338;53.240;8.798;2022-08-24T12:14:04;6.68;;;1.80;;
31764;SDS011;18338;53.240;8.798;2022-08-24T12:17:00;3.90;;;1.75;;
31764;SDS011;18338;53.240;8.798;2022-08-24T12:19:35;2.88;;;1.75;;
31764;SDS011;18338;53.240;8.798;2022-08-24T12:22:06;4.30;;;2.38;;
31764;SDS011;18338;53.240;8.798;2022-08-24T12:24:51;3.10;;;1.80;;
31764;SDS011;18338;53.240;8.798;2022-08-24T12:27:26;1.63;;;1.52;;
31764;SDS011;18338;53.240;8.798;2022-08-24T12:35:17;4.32;;;2.03;;
31764;SDS011;18338;53.240;8.798;2022-08-24T12:37:57;4.32;;;2.05;;
31764;SDS011;18338;53.240;8.798;2022-08-24T12:40:51;1.92;;;1.80;;
31764;SDS011;18338;53.240;8.798;2022-08-24T12:43:23;3.05;;;1.77;;
31764;SDS011;18338;53.240;8.798;2022-08-24T12:46:05;5.35;;;1.98;;
31764;SDS011;18338;53.240;8.798;2022-08-24T12:48:44;2.33;;;1.80;;
31764;SDS011;18338;53.240;8.798;2022-08-24T12:51:20;3.92;;;1.80;;
31764;SDS011;18338;53.240;8.798;2022-08-24T12:54:03;2.75;;;1.92;;
31764;SDS011;18338;53.240;8.798;2022-08-24T12:59:39;1.95;;;1.70;;
31764;SDS011;18338;53.240;8.798;2022-08-24T13:17:44;6.07;;;1.88;;
31764;SDS011;18338;53.240;8.798;2022-08-24T13:20:18;2.85;;;1.73;;
31764;SDS011;18338;53.240;8.798;2022-08-24T13:23:05;2.08;;;1.88;;
31764;SDS011;18338;53.240;8.798;2022-08-24T13:44:29;2.42;;;1.90;;
31764;SDS011;18338;53.240;8.798;2022-08-24T13:47:13;2.00;;;1.85;;
31764;SDS011;18338;53.240;8.798;2022-08-24T13:55:51;2.53;;;1.95;;
31764;SDS011;18338;53.240;8.798;2022-08-24T13:58:38;3.58;;;2.00;;
31764;SDS011;18338;53.240;8.798;2022-08-24T14:06:50;2.40;;;2.20;;
31764;SDS011;18338;53.240;8.798;2022-08-24T14:12:10;3.22;;;1.70;;
31764;SDS011;18338;53.240;8.798;2022-08-24T14:32:27;4.35;;;2.08;;
31764;SDS011;18338;53.240;8.798;2022-08-24T14:42:21;2.10;;;1.90;;
31764;SDS011;18338;53.240;8.798;2022-08-24T14:45:04;1.77;;;1.67;;
31764;SDS011;18338;53.240;8.798;2022-08-24T14:50:47;4.57;;;2.10;;
31764;SDS011;18338;53.240;8.798;2022-08-24T14:53:26;4.25;;;1.75;;
31764;SDS011;18338;53.240;8.798;2022-08-24T14:56:24;3.85;;;1.83;;
31764;SDS011;18338;53.240;8.798;2022-08-24T15:04:57;3.67;;;2.25;;
31764;SDS011;18338;53.240;8.798;2022-08-24T15:07:34;3.80;;;1.90;;
31764;SDS011;18338;53.240;8.798;2022-08-24T15:10:08;3.80;;;2.15;;
31764;SDS011;18338;53.240;8.798;2022-08-24T15:12:50;2.95;;;1.95;;
31764;SDS011;18338;53.240;8.798;2022-08-24T15:15:23;4.68;;;1.90;;
31764;SDS011;18338;53.240;8.798;2022-08-24T15:18:19;4.63;;;1.92;;
31764;SDS011;18338;53.240;8.798;2022-08-24T15:21:16;3.65;;;1.88;;
31764;SDS011;18338;53.240;8.798;2022-08-24T15:26:55;4.72;;;2.03;;
31764;SDS011;18338;53.240;8.798;2022-08-24T15:29:33;4.25;;;2.00;;
31764;SDS011;18338;53.240;8.798;2022-08-24T15:32:03;3.95;;;1.70;;
31764;SDS011;18338;53.240;8.798;2022-08-24T15:37:11;5.72;;;1.88;;
31764;SDS011;18338;53.240;8.798;2022-08-24T15:39:41;2.70;;;1.90;;
31764;SDS011;18338;53.240;8.798;2022-08-24T15:42:10;2.63;;;1.80;;
31764;SDS011;18338;53.240;8.798;2022-08-24T15:44:40;4.32;;;2.13;;
31764;SDS011;18338;53.240;8.798;2022-08-24T15:47:12;3.75;;;2.20;;
31764;SDS011;18338;53.240;8.798;2022-08-24T15:52:38;3.55;;;1.85;;
31764;SDS011;18338;53.240;8.798;2022-08-24T15:55:42;2.10;;;1.83;;
31764;SDS011;18338;53.240;8.798;2022-08-24T15:58:24;2.05;;;1.85;;
31764;SDS011;18338;53.240;8.798;2022-08-24T16:04:08;2.92;;;1.90;;
31764;SDS011;18338;53.240;8.798;2022-08-24T16:06:41;6.05;;;2.00;;
31764;SDS011;18338;53.240;8.798;2022-08-24T16:14:49;1.90;;;1.65;;
31764;SDS011;18338;53.240;8.798;2022-08-24T16:17:28;2.00;;;1.90;;
31764;SDS011;18338;53.240;8.798;2022-08-24T16:20:03;4.05;;;1.50;;
31764;SDS011;18338;53.240;8.798;2022-08-24T16:22:53;4.13;;;2.05;;
31764;SDS011;18338;53.240;8.798;2022-08-24T16:25:37;4.03;;;1.95;;
31764;SDS011;18338;53.240;8.798;2022-08-24T16:28:11;3.08;;;2.05;;
31764;SDS011;18338;53.240;8.798;2022-08-24T16:35:57;1.73;;;1.60;;
31764;SDS011;18338;53.240;8.798;2022-08-24T16:38:29;3.33;;;1.80;;
31764;SDS011;18338;53.240;8.798;2022-08-24T16:40:57;3.40;;;1.83;;
31764;SDS011;18338;53.240;8.798;2022-08-24T16:43:24;2.30;;;1.75;;
31764;SDS011;18338;53.240;8.798;2022-08-24T16:45:52;3.40;;;1.67;;
31764;SDS011;18338;53.240;8.798;2022-08-24T16:48:19;4.15;;;2.00;;
31764;SDS011;18338;53.240;8.798;2022-08-24T16:50:46;3.58;;;2.13;;
31764;SDS011;18338;53.240;8.798;2022-08-24T16:53:16;4.25;;;2.00;;
31764;SDS011;18338;53.240;8.798;2022-08-24T16:55:42;3.97;;;2.20;;
31764;SDS011;18338;53.240;8.798;2022-08-24T16:58:09;3.83;;;2.10;;
31764;SDS011;18338;53.240;8.798;2022-08-24T17:00:36;3.38;;;2.10;;
31764;SDS011;18338;53.240;8.798;2022-08-24T17:03:03;3.33;;;2.40;;
31764;SDS011;18338;53.240;8.798;2022-08-24T17:05:29;3.03;;;2.00;;
31764;SDS011;18338;53.240;8.798;2022-08-24T17:07:57;3.35;;;1.92;;
31764;SDS011;18338;53.240;8.798;2022-08-24T17:10:25;3.55;;;2.13;;
31764;SDS011;18338;53.240;8.798;2022-08-24T17:12:52;3.63;;;2.47;;
31764;SDS011;18338;53.240;8.798;2022-08-24T17:15:19;3.30;;;2.30;;
31764;SDS011;18338;53.240;8.798;2022-08-24T17:17:52;2.20;;;2.00;;
31764;SDS011;18338;53.240;8.798;2022-08-24T17:20:21;3.20;;;2.22;;
31764;SDS011;18338;53.240;8.798;2022-08-24T17:22:47;3.40;;;2.20;;
31764;SDS011;18338;53.240;8.798;2022-08-24T17:25:14;2.40;;;2.10;;
31764;SDS011;18338;53.240;8.798;2022-08-24T17:27:41;4.65;;;2.22;;
31764;SDS011;18338;53.240;8.798;2022-08-24T17:30:09;4.90;;;2.58;;
31764;SDS011;18338;53.240;8.798;2022-08-24T17:32:37;2.70;;;2.28;;
31764;SDS011;18338;53.240;8.798;2022-08-24T17:35:03;3.53;;;2.30;;
31764;SDS011;18338;53.240;8.798;2022-08-24T17:37:31;3.28;;;2.30;;
31764;SDS011;18338;53.240;8.798;2022-08-24T17:39:58;2.60;;;2.40;;
31764;SDS011;18338;53.240;8.798;2022-08-24T17:42:25;2.70;;;2.30;;
31764;SDS011;18338;53.240;8.798;2022-08-24T17:45:11;4.85;;;2.38;;
31764;SDS011;18338;53.240;8.798;2022-08-24T17:47:39;3.63;;;2.10;;
31764;SDS011;18338;53.240;8.798;2022-08-24T17:50:06;3.85;;;2.38;;
31764;SDS011;18338;53.240;8.798;2022-08-24T17:52:36;3.40;;;2.70;;
31764;SDS011;18338;53.240;8.798;2022-08-24T17:55:04;2.78;;;2.40;;
31764;SDS011;18338;53.240;8.798;2022-08-24T17:57:34;3.45;;;2.17;;
31764;SDS011;18338;53.240;8.798;2022-08-24T18:00:03;3.15;;;2.35;;
31764;SDS011;18338;53.240;8.798;2022-08-24T18:02:31;5.30;;;2.40;;
31764;SDS011;18338;53.240;8.798;2022-08-24T18:04:59;3.53;;;2.20;;
31764;SDS011;18338;53.240;8.798;2022-08-24T18:07:26;4.30;;;2.30;;
31764;SDS011;18338;53.240;8.798;2022-08-24T18:10:18;3.40;;;2.55;;
31764;SDS011;18338;53.240;8.798;2022-08-24T18:12:48;4.18;;;2.30;;
31764;SDS011;18338;53.240;8.798;2022-08-24T18:15:15;4.57;;;2.35;;
31764;SDS011;18338;53.240;8.798;2022-08-24T18:17:45;2.30;;;2.10;;
31764;SDS011;18338;53.240;8.798;2022-08-24T18:20:15;6.25;;;2.58;;
31764;SDS011;18338;53.240;8.798;2022-08-24T18:22:46;5.88;;;2.60;;
31764;SDS011;18338;53.240;8.798;2022-08-24T18:25:19;4.22;;;2.40;;
31764;SDS011;18338;53.240;8.798;2022-08-24T18:27:48;4.15;;;2.47;;
31764;SDS011;18338;53.240;8.798;2022-08-24T18:30:20;5.47;;;2.55;;
31764;SDS011;18338;53.240;8.798;2022-08-24T18:32:55;3.83;;;2.38;;
31764;SDS011;18338;53.240;8.798;2022-08-24T18:35:23;2.95;;;2.30;;
31764;SDS011;18338;53.240;8.798;2022-08-24T18:37:49;3.70;;;2.33;;
31764;SDS011;18338;53.240;8.798;2022-08-24T18:40:16;4.47;;;2.65;;
31764;SDS011;18338;53.240;8.798;2022-08-24T18:42:46;4.05;;;2.20;;
31764;SDS011;18338;53.240;8.798;2022-08-24T18:45:15;4.18;;;2.25;;
31764;SDS011;18338;53.240;8.798;2022-08-24T18:47:42;3.88;;;2.60;;
31764;SDS011;18338;53.240;8.798;2022-08-24T18:50:09;3.13;;;2.42;;
31764;SDS011;18338;53.240;8.798;2022-08-24T18:52:37;5.43;;;2.53;;
31764;SDS011;18338;53.240;8.798;2022-08-24T18:55:07;4.50;;;2.75;;
31764;SDS011;18338;53.240;8.798;2022-08-24T18:57:34;4.20;;;3.00;;
31764;SDS011;18338;53.240;8.798;2022-08-24T19:00:01;3.13;;;2.50;;